Time;durP1;ratioP1;P1;durP2;ratioP2;P2;SDS_P1;SDS_P2;PMS_P1;PMS_P2;Temp;Humidity;BMP_temperature;BMP_pressure;BME280_temperature;BME280_humidity;BME280_pressure;Samples;Min_cycle;Max_cycle;Signal;HPM_P1;HPM_P2
2023/04/11 00:05:02;;;;;;;2.78;2.00;;;;;;;;;;10413909;28;20036;-50
2023/04/11 00:10:03;;;;;;;2.92;1.90;;;;;;;;;;10413543;28;20271;-52
2023/04/11 00:15:04;;;;;;;2.90;2.10;;;;;;;;;;10419865;28;20385;-49
2023/04/11 00:20:06;;;;;;;3.33;2.08;;;;;;;;;;10417553;28;20021;-52
2023/04/11 00:25:07;;;;;;;2.50;1.88;;;;;;;;;;10418570;28;20021;-50
2023/04/11 00:30:08;;;;;;;2.72;1.90;;;;;;;;;;10414203;28;20100;-49
2023/04/11 00:35:09;;;;;;;1.98;1.70;;;;;;;;;;10413227;28;20025;-49
2023/04/11 00:40:14;;;;;;;4.05;2.22;;;;;;;;;;10412667;28;20029;-50
2023/04/11 00:45:15;;;;;;;3.97;2.25;;;;;;;;;;10411347;28;20038;-48
2023/04/11 00:50:16;;;;;;;2.47;1.75;;;;;;;;;;10413100;28;20063;-50
2023/04/11 00:55:17;;;;;;;2.63;2.25;;;;;;;;;;10411846;28;20060;-51
2023/04/11 01:00:19;;;;;;;3.05;2.00;;;;;;;;;;10412365;28;20393;-50
2023/04/11 01:05:20;;;;;;;2.80;2.15;;;;;;;;;;10410181;28;20061;-51
2023/04/11 01:10:22;;;;;;;4.07;2.10;;;;;;;;;;10399632;28;20129;-51
2023/04/11 01:15:23;;;;;;;2.33;1.77;;;;;;;;;;10407762;28;20048;-50
2023/04/11 01:20:25;;;;;;;2.42;1.85;;;;;;;;;;10409877;28;20133;-50
2023/04/11 01:25:25;;;;;;;2.58;2.08;;;;;;;;;;10413198;28;20025;-51
2023/04/11 01:30:26;;;;;;;2.60;1.77;;;;;;;;;;10409392;28;20478;-49
2023/04/11 01:35:27;;;;;;;2.00;1.80;;;;;;;;;;10410791;28;20033;-52
2023/04/11 01:40:28;;;;;;;3.13;2.10;;;;;;;;;;10410923;28;20029;-50
2023/04/11 01:45:30;;;;;;;2.00;1.80;;;;;;;;;;10407672;28;20203;-48
2023/04/11 01:50:31;;;;;;;2.63;2.08;;;;;;;;;;10411271;28;20064;-49
2023/04/11 01:55:31;;;;;;;2.58;2.10;;;;;;;;;;10408705;28;20069;-51
2023/04/11 02:00:32;;;;;;;2.47;1.95;;;;;;;;;;10408992;28;20481;-51
2023/04/11 02:05:32;;;;;;;3.15;1.80;;;;;;;;;;10409502;28;20022;-50
2023/04/11 02:10:33;;;;;;;3.10;2.00;;;;;;;;;;10408879;28;20017;-50
2023/04/11 02:15:34;;;;;;;5.63;2.30;;;;;;;;;;10407285;28;20057;-50
2023/04/11 02:20:39;;;;;;;1.88;1.70;;;;;;;;;;10413225;28;20435;-52
2023/04/11 02:25:40;;;;;;;2.30;1.83;;;;;;;;;;10407641;28;20033;-46
2023/04/11 02:30:40;;;;;;;2.05;1.65;;;;;;;;;;10409672;28;20030;-52
2023/04/11 02:35:42;;;;;;;4.53;1.80;;;;;;;;;;10425726;28;20040;-50
2023/04/11 02:40:42;;;;;;;1.67;1.58;;;;;;;;;;10406084;28;20034;-51
2023/04/11 02:45:43;;;;;;;2.25;1.88;;;;;;;;;;10409215;28;20072;-52
2023/04/11 02:50:44;;;;;;;1.90;1.80;;;;;;;;;;10406801;28;20037;-49
2023/04/11 02:55:44;;;;;;;2.80;1.90;;;;;;;;;;10407088;28;20080;-51
2023/04/11 03:00:48;;;;;;;3.03;1.65;;;;;;;;;;10407172;28;20017;-50
2023/04/11 03:05:48;;;;;;;2.05;1.88;;;;;;;;;;10404811;28;20310;-51
2023/04/11 03:10:49;;;;;;;3.28;2.05;;;;;;;;;;10407450;28;20280;-50
2023/04/11 03:15:49;;;;;;;2.10;1.90;;;;;;;;;;10408089;28;20060;-49
2023/04/11 03:20:51;;;;;;;1.80;1.67;;;;;;;;;;10411956;28;20039;-50
2023/04/11 03:25:52;;;;;;;2.45;1.90;;;;;;;;;;10410850;28;20052;-51
2023/04/11 03:30:53;;;;;;;1.77;1.67;;;;;;;;;;10416380;28;20056;-50
2023/04/11 03:35:54;;;;;;;3.08;1.98;;;;;;;;;;10415119;28;20032;-51
2023/04/11 03:40:55;;;;;;;2.03;1.83;;;;;;;;;;10415584;28;20405;-50
2023/04/11 03:45:55;;;;;;;2.33;1.98;;;;;;;;;;10415644;28;20472;-47
2023/04/11 03:50:56;;;;;;;1.70;1.55;;;;;;;;;;10402230;28;20551;-49
2023/04/11 03:55:56;;;;;;;2.95;2.13;;;;;;;;;;10412159;28;20036;-47
2023/04/11 04:00:57;;;;;;;2.13;1.92;;;;;;;;;;10414241;28;20029;-47
2023/04/11 04:05:58;;;;;;;3.85;2.28;;;;;;;;;;10412778;28;20017;-51
2023/04/11 04:10:58;;;;;;;2.78;1.80;;;;;;;;;;10414374;28;20037;-51
2023/04/11 04:15:59;;;;;;;2.85;2.20;;;;;;;;;;10412851;28;20080;-51
2023/04/11 04:20:59;;;;;;;2.35;1.63;;;;;;;;;;10417129;28;20025;-50
2023/04/11 04:26:01;;;;;;;2.35;1.73;;;;;;;;;;10412300;28;20030;-48
2023/04/11 04:31:02;;;;;;;4.28;1.70;;;;;;;;;;10412445;28;20377;-49
2023/04/11 04:36:04;;;;;;;2.30;2.03;;;;;;;;;;10412823;28;20030;-51
2023/04/11 04:41:14;;;;;;;2.33;2.10;;;;;;;;;;10402673;28;20040;-51
2023/04/11 04:46:15;;;;;;;3.00;2.00;;;;;;;;;;10399739;28;20028;-52
2023/04/11 04:51:15;;;;;;;2.90;1.92;;;;;;;;;;10411251;28;20379;-50
2023/04/11 04:56:16;;;;;;;2.47;2.08;;;;;;;;;;10411538;28;20087;-52
2023/04/11 05:01:17;;;;;;;2.47;2.08;;;;;;;;;;10410691;28;20021;-47
2023/04/11 05:06:17;;;;;;;2.65;1.95;;;;;;;;;;10409914;28;20083;-52
2023/04/11 05:11:18;;;;;;;2.15;1.85;;;;;;;;;;10409815;28;20030;-50
2023/04/11 05:16:19;;;;;;;2.85;2.10;;;;;;;;;;10410182;28;20025;-49
2023/04/11 05:21:21;;;;;;;2.25;2.00;;;;;;;;;;10413709;28;20084;-51
2023/04/11 05:26:21;;;;;;;5.65;3.15;;;;;;;;;;10411287;28;20033;-51
2023/04/11 05:31:24;;;;;;;3.30;2.22;;;;;;;;;;10410207;28;20033;-53
2023/04/11 05:36:25;;;;;;;5.78;1.90;;;;;;;;;;10409763;28;20026;-50
2023/04/11 05:41:25;;;;;;;5.07;1.90;;;;;;;;;;10412128;28;20033;-52
2023/04/11 05:46:28;;;;;;;8.27;2.17;;;;;;;;;;10409449;28;20044;-50
2023/04/11 05:51:28;;;;;;;6.05;2.28;;;;;;;;;;10387754;28;20045;-51
2023/04/11 05:56:29;;;;;;;5.22;1.90;;;;;;;;;;10407375;28;20033;-51
2023/04/11 06:01:30;;;;;;;2.72;1.90;;;;;;;;;;10407605;28;20025;-51
2023/04/11 06:06:32;;;;;;;11.02;2.40;;;;;;;;;;10406292;28;20037;-50
2023/04/11 06:11:33;;;;;;;8.48;3.20;;;;;;;;;;10406852;28;20040;-48
2023/04/11 06:16:35;;;;;;;7.05;2.63;;;;;;;;;;10406151;28;20040;-47
2023/04/11 06:21:36;;;;;;;8.88;2.60;;;;;;;;;;10405001;28;20025;-49
2023/04/11 06:26:36;;;;;;;7.03;2.80;;;;;;;;;;10406649;28;20029;-51
2023/04/11 06:31:39;;;;;;;7.50;2.50;;;;;;;;;;10407834;28;20028;-50
2023/04/11 06:36:41;;;;;;;8.43;2.92;;;;;;;;;;10408816;28;20418;-51
2023/04/11 06:41:42;;;;;;;7.97;2.78;;;;;;;;;;10410912;28;20017;-50
2023/04/11 06:46:42;;;;;;;6.88;2.40;;;;;;;;;;10407629;28;20112;-51
2023/04/11 06:51:50;;;;;;;10.32;2.97;;;;;;;;;;10407966;28;20417;-51
2023/04/11 06:56:51;;;;;;;10.57;2.53;;;;;;;;;;10407960;28;20249;-51
2023/04/11 07:01:51;;;;;;;8.40;2.78;;;;;;;;;;10411410;28;20264;-51
2023/04/11 07:06:52;;;;;;;8.68;2.92;;;;;;;;;;10415891;28;20361;-52
2023/04/11 07:11:53;;;;;;;9.43;2.95;;;;;;;;;;10416239;28;20437;-50
2023/04/11 07:16:53;;;;;;;3.78;2.58;;;;;;;;;;10416125;28;20025;-54
2023/04/11 07:21:55;;;;;;;4.97;2.60;;;;;;;;;;10420121;28;20034;-47
2023/04/11 07:27:00;;;;;;;9.32;3.00;;;;;;;;;;10415890;28;20453;-48
2023/04/11 07:32:01;;;;;;;3.35;2.47;;;;;;;;;;10416940;28;20425;-46
2023/04/11 07:37:02;;;;;;;6.88;2.80;;;;;;;;;;10414387;28;20017;-52
2023/04/11 07:42:03;;;;;;;9.63;2.83;;;;;;;;;;10416959;28;20017;-47
2023/04/11 07:47:03;;;;;;;4.00;2.40;;;;;;;;;;10414987;28;20026;-47
2023/04/11 07:52:04;;;;;;;8.27;2.90;;;;;;;;;;10413407;28;20468;-47
2023/04/11 07:57:05;;;;;;;5.85;2.33;;;;;;;;;;10413671;28;20047;-49
2023/04/11 08:02:06;;;;;;;3.50;2.42;;;;;;;;;;10413962;28;20389;-49
2023/04/11 08:07:07;;;;;;;2.83;2.20;;;;;;;;;;10413821;28;20025;-51
2023/04/11 08:12:08;;;;;;;6.75;2.60;;;;;;;;;;10413334;28;20033;-49
2023/04/11 08:17:13;;;;;;;7.40;3.03;;;;;;;;;;10413268;28;20030;-49
2023/04/11 08:22:14;;;;;;;5.10;2.40;;;;;;;;;;10413007;28;20032;-48
2023/04/11 08:27:14;;;;;;;4.32;2.25;;;;;;;;;;10413705;28;20036;-49
2023/04/11 08:32:15;;;;;;;5.05;2.55;;;;;;;;;;10413345;28;20029;-49
2023/04/11 08:37:16;;;;;;;3.90;2.50;;;;;;;;;;10414069;28;20171;-48
2023/04/11 08:42:28;;;;;;;3.13;2.60;;;;;;;;;;10416449;28;20473;-46
2023/04/11 08:47:28;;;;;;;6.72;2.60;;;;;;;;;;10411828;28;20026;-48
2023/04/11 08:52:30;;;;;;;3.42;2.28;;;;;;;;;;10410939;28;20049;-49
2023/04/11 08:57:32;;;;;;;4.45;2.20;;;;;;;;;;10412546;28;20506;-51
2023/04/11 09:02:32;;;;;;;2.67;2.25;;;;;;;;;;10411769;28;20051;-51
2023/04/11 09:07:48;;;;;;;3.47;2.33;;;;;;;;;;10410711;28;20447;-51
2023/04/11 09:12:48;;;;;;;6.97;2.90;;;;;;;;;;10411758;28;20113;-57
2023/04/11 09:17:49;;;;;;;3.15;2.45;;;;;;;;;;10411622;28;20025;-48
2023/04/11 09:22:52;;;;;;;3.17;2.30;;;;;;;;;;10408918;28;20025;-52
2023/04/11 09:28:09;;;;;;;6.10;2.63;;;;;;;;;;10399171;28;20018;-50
2023/04/11 09:33:27;;;;;;;7.82;2.63;;;;;;;;;;10410295;28;20056;-52
2023/04/11 09:38:33;;;;;;;4.15;2.78;;;;;;;;;;10410084;28;20026;-49
2023/04/11 09:43:51;;;;;;;2.95;2.58;;;;;;;;;;10411884;28;20030;-51
2023/04/11 09:48:53;;;;;;;3.63;2.25;;;;;;;;;;10409192;28;20048;-48
2023/04/11 09:53:54;;;;;;;3.13;2.60;;;;;;;;;;10410158;28;20493;-51
2023/04/11 09:58:57;;;;;;;3.65;2.45;;;;;;;;;;10410091;28;20401;-51
2023/04/11 10:03:59;;;;;;;5.28;2.65;;;;;;;;;;10408651;28;20139;-51
2023/04/11 10:09:09;;;;;;;5.72;2.55;;;;;;;;;;10409647;28;20029;-51
2023/04/11 10:14:38;;;;;;;5.90;2.28;;;;;;;;;;10409184;28;20031;-53
2023/04/11 10:19:38;;;;;;;2.92;2.40;;;;;;;;;;10408709;28;20389;-51
2023/04/11 10:24:39;;;;;;;3.00;2.65;;;;;;;;;;10411178;28;20040;-50
2023/04/11 10:29:47;;;;;;;2.95;2.40;;;;;;;;;;10408676;28;20035;-52
2023/04/11 10:34:54;;;;;;;2.55;2.35;;;;;;;;;;10408720;28;20385;-51
2023/04/11 10:39:59;;;;;;;3.47;2.35;;;;;;;;;;10408659;28;20287;-51
2023/04/11 10:45:28;;;;;;;6.40;2.80;;;;;;;;;;10410975;28;20061;-49
2023/04/11 10:50:42;;;;;;;7.30;3.37;;;;;;;;;;10408037;28;20482;-50
2023/04/11 10:55:49;;;;;;;3.17;2.40;;;;;;;;;;10408244;28;20116;-46
2023/04/11 11:00:52;;;;;;;2.80;2.50;;;;;;;;;;10408440;28;20030;-52
2023/04/11 11:06:05;;;;;;;2.97;2.20;;;;;;;;;;10408651;28;20146;-49
2023/04/11 11:11:10;;;;;;;3.58;2.70;;;;;;;;;;10407109;28;20132;-52
2023/04/11 11:16:23;;;;;;;5.90;3.05;;;;;;;;;;10407260;28;20033;-50
2023/04/11 11:21:27;;;;;;;5.15;2.78;;;;;;;;;;10411581;28;20064;-50
2023/04/11 11:26:43;;;;;;;3.28;2.42;;;;;;;;;;10403471;28;20240;-49
2023/04/11 11:31:46;;;;;;;3.35;2.70;;;;;;;;;;10405665;28;20030;-52
2023/04/11 11:36:47;;;;;;;4.97;2.63;;;;;;;;;;10405720;28;20022;-51
2023/04/11 11:41:48;;;;;;;2.60;2.40;;;;;;;;;;10407326;28;20401;-51
2023/04/11 11:47:18;;;;;;;3.63;2.50;;;;;;;;;;10407161;28;20021;-53
2023/04/11 11:52:40;;;;;;;5.20;2.80;;;;;;;;;;10408452;28;20045;-50
2023/04/11 11:57:45;;;;;;;3.20;2.80;;;;;;;;;;10382550;28;20029;-51
2023/04/11 12:02:45;;;;;;;4.32;2.83;;;;;;;;;;10378522;28;20025;-50
2023/04/11 12:07:46;;;;;;;4.07;2.60;;;;;;;;;;10382928;28;20030;-50
2023/04/11 12:12:49;;;;;;;3.88;2.65;;;;;;;;;;10397506;28;20029;-50
2023/04/11 12:17:53;;;;;;;3.08;2.45;;;;;;;;;;10409303;28;20450;-51
2023/04/11 12:22:55;;;;;;;2.60;2.40;;;;;;;;;;10416699;28;20045;-51
2023/04/11 12:27:55;;;;;;;5.13;2.20;;;;;;;;;;10414353;28;20112;-53
2023/04/11 12:32:56;;;;;;;3.33;2.38;;;;;;;;;;10410057;28;20553;-52
2023/04/11 12:37:56;;;;;;;5.45;2.35;;;;;;;;;;10410039;28;20025;-49
2023/04/11 12:42:57;;;;;;;4.18;2.65;;;;;;;;;;10414987;28;20026;-51
2023/04/11 12:47:58;;;;;;;4.57;2.38;;;;;;;;;;10410816;28;20035;-50
2023/04/11 12:52:58;;;;;;;6.15;2.33;;;;;;;;;;10408628;28;20041;-46
2023/04/11 12:58:00;;;;;;;4.28;2.53;;;;;;;;;;10409224;28;20091;-56
2023/04/11 13:03:03;;;;;;;2.55;2.35;;;;;;;;;;10410045;28;20018;-50
2023/04/11 13:08:03;;;;;;;4.95;2.70;;;;;;;;;;10411092;28;20036;-51
2023/04/11 13:13:04;;;;;;;3.35;2.40;;;;;;;;;;10411288;28;20064;-50
2023/04/11 13:18:05;;;;;;;5.60;2.85;;;;;;;;;;10410541;28;20116;-51
2023/04/11 13:23:05;;;;;;;3.33;2.60;;;;;;;;;;10413211;28;20033;-50
2023/04/11 13:28:06;;;;;;;4.03;2.97;;;;;;;;;;10409543;28;20025;-49
2023/04/11 13:33:06;;;;;;;4.50;2.95;;;;;;;;;;10410053;28;20017;-55
2023/04/11 13:38:07;;;;;;;3.67;3.03;;;;;;;;;;10409908;28;20021;-57
2023/04/11 13:43:08;;;;;;;2.50;2.28;;;;;;;;;;10413185;28;20053;-50
2023/04/11 13:48:09;;;;;;;4.10;2.40;;;;;;;;;;10409670;28;20033;-52
2023/04/11 13:53:09;;;;;;;3.35;2.75;;;;;;;;;;10408941;28;20061;-52
2023/04/11 13:58:10;;;;;;;6.13;2.70;;;;;;;;;;10410811;28;20079;-47
2023/04/11 14:03:11;;;;;;;2.35;2.15;;;;;;;;;;10397765;28;20362;-49
2023/04/11 14:08:13;;;;;;;4.80;2.75;;;;;;;;;;10408795;28;20316;-50
2023/04/11 14:13:13;;;;;;;4.47;2.60;;;;;;;;;;10407811;28;20033;-47
2023/04/11 14:18:14;;;;;;;3.28;2.30;;;;;;;;;;10408911;28;20030;-48
2023/04/11 14:23:15;;;;;;;3.42;2.60;;;;;;;;;;10411782;28;20048;-47
2023/04/11 14:28:17;;;;;;;3.58;2.65;;;;;;;;;;10408391;28;20025;-46
2023/04/11 14:33:17;;;;;;;7.65;3.20;;;;;;;;;;10383174;28;20389;-46
2023/04/11 14:38:18;;;;;;;8.88;2.97;;;;;;;;;;10406860;28;20029;-50
2023/04/11 14:43:19;;;;;;;6.28;3.20;;;;;;;;;;10410081;28;20036;-51
2023/04/11 14:48:19;;;;;;;4.10;3.17;;;;;;;;;;10407021;28;20021;-51
2023/04/11 14:53:21;;;;;;;5.35;2.88;;;;;;;;;;10421783;23;20053;-61
2023/04/11 14:58:22;;;;;;;4.85;3.38;;;;;;;;;;10406484;28;20108;-61
2023/04/11 15:03:23;;;;;;;4.32;3.00;;;;;;;;;;10391513;28;20037;-61
2023/04/11 15:08:23;;;;;;;4.10;3.05;;;;;;;;;;10405085;28;20113;-61
2023/04/11 15:13:25;;;;;;;5.85;3.83;;;;;;;;;;10405003;28;20091;-61
2023/04/11 15:18:29;;;;;;;5.47;3.50;;;;;;;;;;10405961;28;20025;-61
2023/04/11 15:23:30;;;;;;;4.03;3.47;;;;;;;;;;10410523;28;20076;-62
2023/04/11 15:28:34;;;;;;;5.68;3.75;;;;;;;;;;10412879;28;20542;-62
2023/04/11 15:33:37;;;;;;;5.93;3.72;;;;;;;;;;10412813;28;20516;-61
2023/04/11 15:38:37;;;;;;;6.80;3.60;;;;;;;;;;10412201;28;20118;-61
2023/04/11 15:43:39;;;;;;;6.03;3.75;;;;;;;;;;10415731;28;20029;-60
2023/04/11 15:48:39;;;;;;;6.68;3.75;;;;;;;;;;10413267;28;20022;-61
2023/04/11 15:53:40;;;;;;;12.52;3.40;;;;;;;;;;10411558;28;20050;-61
2023/04/11 15:58:41;;;;;;;7.20;3.90;;;;;;;;;;10411724;28;20266;-61
2023/04/11 16:03:42;;;;;;;12.70;3.72;;;;;;;;;;10411844;28;20036;-61
2023/04/11 16:08:44;;;;;;;12.82;4.15;;;;;;;;;;10411642;28;20034;-61
2023/04/11 16:13:44;;;;;;;5.00;3.78;;;;;;;;;;10411589;28;20041;-61
2023/04/11 16:18:45;;;;;;;11.50;3.70;;;;;;;;;;10411439;28;20489;-61
2023/04/11 16:23:46;;;;;;;8.80;3.40;;;;;;;;;;10412032;28;20026;-61
2023/04/11 16:28:47;;;;;;;7.03;3.40;;;;;;;;;;10410305;28;20022;-61
2023/04/11 16:33:48;;;;;;;6.32;3.40;;;;;;;;;;10410855;28;20500;-61
2023/04/11 16:38:48;;;;;;;4.13;3.35;;;;;;;;;;10409373;28;20021;-61
2023/04/11 16:43:49;;;;;;;5.78;3.63;;;;;;;;;;10413383;28;20029;-61
2023/04/11 16:48:49;;;;;;;6.30;2.95;;;;;;;;;;10410736;28;20021;-61
2023/04/11 16:53:52;;;;;;;6.00;3.17;;;;;;;;;;10409785;28;20045;-61
2023/04/11 16:58:52;;;;;;;6.90;3.17;;;;;;;;;;10410518;28;20025;-61
2023/04/11 17:03:53;;;;;;;5.03;2.88;;;;;;;;;;10409978;28;20453;-60
2023/04/11 17:08:55;;;;;;;4.72;3.10;;;;;;;;;;10409471;28;20013;-60
2023/04/11 17:13:56;;;;;;;4.05;3.03;;;;;;;;;;10409061;28;20026;-60
2023/04/11 17:18:56;;;;;;;5.63;3.50;;;;;;;;;;10408874;28;20025;-62
2023/04/11 17:23:57;;;;;;;3.60;2.88;;;;;;;;;;10409527;28;20034;-61
2023/04/11 17:28:58;;;;;;;7.75;3.00;;;;;;;;;;10407883;28;20026;-61
2023/04/11 17:33:58;;;;;;;5.45;3.13;;;;;;;;;;10408296;28;20477;-59
2023/04/11 17:38:59;;;;;;;3.03;2.45;;;;;;;;;;10408404;28;20021;-60
2023/04/11 17:43:59;;;;;;;4.13;2.58;;;;;;;;;;10409788;28;20393;-61
2023/04/11 17:49:00;;;;;;;6.05;2.92;;;;;;;;;;10407810;28;20026;-61
2023/04/11 17:54:00;;;;;;;4.72;2.90;;;;;;;;;;10407595;28;20037;-61
2023/04/11 17:59:01;;;;;;;5.03;3.10;;;;;;;;;;10408057;28;20021;-61
2023/04/11 18:04:06;;;;;;;3.45;2.70;;;;;;;;;;10407404;28;20037;-61
2023/04/11 18:09:06;;;;;;;5.50;3.15;;;;;;;;;;10406381;28;20079;-61
2023/04/11 18:14:07;;;;;;;8.18;3.40;;;;;;;;;;10404493;28;20033;-59
2023/04/11 18:19:08;;;;;;;6.05;2.90;;;;;;;;;;10406110;28;20025;-60
2023/04/11 18:24:08;;;;;;;3.25;2.78;;;;;;;;;;10405965;28;20186;-59
2023/04/11 18:29:09;;;;;;;5.00;2.70;;;;;;;;;;10407311;28;20488;-59
2023/04/11 18:34:09;;;;;;;4.30;2.78;;;;;;;;;;10405490;28;20028;-61
2023/04/11 18:39:10;;;;;;;3.03;2.72;;;;;;;;;;10406209;28;20032;-61
2023/04/11 18:44:10;;;;;;;5.05;2.65;;;;;;;;;;10409644;28;20022;-59
2023/04/11 18:49:12;;;;;;;4.03;2.58;;;;;;;;;;10406729;28;20176;-60
2023/04/11 18:54:12;;;;;;;4.13;2.92;;;;;;;;;;10406684;28;20045;-61
2023/04/11 18:59:13;;;;;;;6.50;2.65;;;;;;;;;;10414372;28;20026;-60
2023/04/11 19:04:14;;;;;;;4.07;2.70;;;;;;;;;;10414072;28;20114;-60
2023/04/11 19:09:14;;;;;;;3.20;2.40;;;;;;;;;;10414396;28;20017;-60
2023/04/11 19:14:15;;;;;;;6.30;3.03;;;;;;;;;;10413751;28;20087;-59
2023/04/11 19:19:15;;;;;;;4.18;2.60;;;;;;;;;;10413806;28;20029;-61
2023/04/11 19:24:16;;;;;;;3.30;2.60;;;;;;;;;;10413551;28;20049;-61
2023/04/11 19:29:17;;;;;;;4.75;2.92;;;;;;;;;;10413471;28;20037;-60
2023/04/11 19:34:17;;;;;;;4.13;2.67;;;;;;;;;;10413663;28;20025;-60
2023/04/11 19:39:18;;;;;;;2.95;2.42;;;;;;;;;;10413484;28;20049;-61
2023/04/11 19:44:18;;;;;;;5.93;2.38;;;;;;;;;;10416256;28;20036;-61
2023/04/11 19:49:19;;;;;;;3.60;2.80;;;;;;;;;;10412350;28;20025;-61
2023/04/11 19:54:19;;;;;;;2.42;2.20;;;;;;;;;;10411681;28;20060;-61
2023/04/11 19:59:21;;;;;;;7.82;2.88;;;;;;;;;;10412295;28;20052;-61
2023/04/11 20:04:22;;;;;;;3.05;2.70;;;;;;;;;;10411777;28;20033;-62
2023/04/11 20:09:23;;;;;;;4.53;2.63;;;;;;;;;;10411633;28;20091;-60
2023/04/11 20:14:23;;;;;;;2.60;2.40;;;;;;;;;;10411216;28;20056;-60
2023/04/11 20:19:28;;;;;;;2.63;2.42;;;;;;;;;;10411699;28;20484;-60
2023/04/11 20:24:28;;;;;;;5.53;2.70;;;;;;;;;;10411352;28;20028;-61
2023/04/11 20:29:31;;;;;;;2.55;2.35;;;;;;;;;;10411421;28;20116;-61
2023/04/11 20:34:32;;;;;;;2.42;2.22;;;;;;;;;;10410417;28;20037;-60
2023/04/11 20:39:33;;;;;;;8.57;2.70;;;;;;;;;;10411289;28;20032;-59
2023/04/11 20:44:34;;;;;;;4.90;2.28;;;;;;;;;;10412923;28;20465;-61
2023/04/11 20:49:35;;;;;;;3.65;2.50;;;;;;;;;;10397998;28;20473;-59
2023/04/11 20:54:36;;;;;;;2.50;2.30;;;;;;;;;;10410382;28;20045;-60
2023/04/11 20:59:37;;;;;;;2.67;2.47;;;;;;;;;;10409164;28;20052;-60
2023/04/11 21:04:37;;;;;;;3.08;2.33;;;;;;;;;;10425037;28;20021;-60
2023/04/11 21:09:38;;;;;;;3.03;2.55;;;;;;;;;;10408754;28;20025;-59
2023/04/11 21:14:39;;;;;;;2.60;2.40;;;;;;;;;;10409154;28;20037;-60
2023/04/11 21:19:39;;;;;;;2.72;2.53;;;;;;;;;;10407528;28;20026;-60
2023/04/11 21:24:40;;;;;;;3.88;2.60;;;;;;;;;;10424076;28;20033;-60
2023/04/11 21:29:40;;;;;;;3.72;2.50;;;;;;;;;;10408596;28;20473;-61
2023/04/11 21:34:41;;;;;;;3.05;2.35;;;;;;;;;;10409084;28;20030;-59
2023/04/11 21:39:42;;;;;;;3.55;2.38;;;;;;;;;;10408393;28;20025;-61
2023/04/11 21:44:42;;;;;;;4.47;2.53;;;;;;;;;;10410721;28;20026;-60
2023/04/11 21:49:45;;;;;;;2.88;2.58;;;;;;;;;;10407767;28;20029;-60
2023/04/11 21:54:46;;;;;;;2.83;2.45;;;;;;;;;;10407650;28;20052;-60
2023/04/11 21:59:46;;;;;;;2.85;2.47;;;;;;;;;;10408389;28;20037;-61
2023/04/11 22:04:47;;;;;;;4.00;2.97;;;;;;;;;;10408004;28;20060;-61
2023/04/11 22:09:47;;;;;;;3.47;2.50;;;;;;;;;;10407364;28;20032;-61
2023/04/11 22:14:51;;;;;;;3.08;2.40;;;;;;;;;;10405230;28;20032;-60
2023/04/11 22:19:52;;;;;;;3.55;2.60;;;;;;;;;;10405788;28;20257;-61
2023/04/11 22:24:52;;;;;;;2.67;2.28;;;;;;;;;;10404908;28;20292;-60
2023/04/11 22:29:56;;;;;;;3.60;2.53;;;;;;;;;;10400074;28;20024;-61
2023/04/11 22:34:57;;;;;;;3.80;2.40;;;;;;;;;;10400313;28;20033;-61
2023/04/11 22:39:58;;;;;;;10.15;2.22;;;;;;;;;;10406170;28;20520;-61
2023/04/11 22:44:58;;;;;;;2.55;2.30;;;;;;;;;;10404968;28;20032;-60
2023/04/11 22:50:00;;;;;;;5.90;2.63;;;;;;;;;;10400771;28;20014;-60
2023/04/11 22:55:00;;;;;;;5.93;2.80;;;;;;;;;;10404251;28;20053;-61
2023/04/11 23:00:03;;;;;;;6.55;2.55;;;;;;;;;;10405268;28;20040;-61
2023/04/11 23:05:05;;;;;;;2.47;2.20;;;;;;;;;;10404680;28;20021;-61
2023/04/11 23:10:12;;;;;;;7.93;2.90;;;;;;;;;;10405814;28;20033;-61
2023/04/11 23:15:13;;;;;;;7.03;2.75;;;;;;;;;;10405782;28;20424;-60
2023/04/11 23:20:14;;;;;;;5.30;2.72;;;;;;;;;;10406357;28;20025;-61
2023/04/11 23:25:15;;;;;;;6.63;2.35;;;;;;;;;;10405754;28;20120;-61
2023/04/11 23:30:16;;;;;;;4.07;2.70;;;;;;;;;;10406125;28;20072;-62
2023/04/11 23:35:18;;;;;;;4.65;2.75;;;;;;;;;;10405781;28;20088;-61
2023/04/11 23:40:18;;;;;;;3.47;2.75;;;;;;;;;;10405665;28;20025;-61
2023/04/11 23:45:21;;;;;;;8.18;2.80;;;;;;;;;;10415955;28;20374;-60
2023/04/11 23:50:21;;;;;;;2.80;2.53;;;;;;;;;;10412038;28;20120;-61
2023/04/11 23:55:22;;;;;;;3.88;2.65;;;;;;;;;;10412784;28;20049;-61
